Flight Track Log - Related Links

Times and Time Zones

All times are in EDT time to prevent confusion due to time zone crossing. See the FLG3429 flight status page for this flight to view local times or setup timezone preferences in your user account.

Time Position Orientation Groundspeed Altitude Reporting Facility
EDT Latitude Longitude Course Direction KTS MPH feet Rate Location/Type
Sun 08:58:28 PM 40.6500 -73.8667 229° Southwest 198 228 1,500  Level New York TRACON
Sun 08:59:28 PM 40.6000 -73.9000 207° Southwest 219 252 3,400 1,900 Climbing New York TRACON
Sun 09:00:28 PM 40.5333 -73.9500 210° Southwest 267 307 5,300 2,250 Climbing New York TRACON
Sun 09:01:28 PM 40.4667 -74.0167 217° Southwest 273 314 7,900 2,500 Climbing New York TRACON
Sun 09:02:00 PM 40.2959 -74.3180 232° Southwest  Level FlightAware Approximate
Sun 09:02:28 PM 40.4167 -74.0667 217° Southwest 279 321 10,300  Level New York TRACON
Sun 09:03:00 PM 40.2299 -74.4302 229° Southwest  Level FlightAware Approximate
Sun 09:03:28 PM 40.3667 -74.1667 237° Southwest 327 376 11,500  Level New York TRACON
Sun 09:04:45 PM 40.3008 -74.2925 236° Southwest 349 402 14,100 1,970 Climbing New York Center
Sun 09:05:42 PM 40.2561 -74.3881 239° Southwest 349 402 15,900 1,487 Climbing New York Center
Sun 09:06:42 PM 40.2114 -74.4836 239° Southwest 349 402 17,000 1,475 Climbing New York Center
Sun 09:07:44 PM 40.1922 -74.6294 260° West 355 409 18,900 1,756 Climbing New York Center
Sun 09:08:45 PM 40.1789 -74.7753 263° West 373 429 20,600 1,627 Climbing New York Center
Sun 09:09:42 PM 40.1728 -74.8972 266° West 378 435 22,100 1,385 Climbing New York Center
Sun 09:10:42 PM 40.1617 -75.0297 264° West 378 435 23,300 1,050 Climbing New York Center
Sun 09:11:42 PM 40.1503 -75.1703 264° West 378 435 24,200 1,000 Climbing New York Center
Sun 09:12:42 PM 40.1325 -75.3075 260° West 383 441 25,300 800 Climbing New York Center
Sun 09:13:42 PM 40.0839 -75.4344 243° Southwest 391 450 25,800 744 Climbing New York Center
Sun 09:14:43 PM 40.0392 -75.5617 245° Southwest 396 456 26,800 836 Climbing New York Center
Sun 09:15:44 PM 39.9925 -75.6833 243° Southwest 386 444 27,500 655 Climbing New York Center
Sun 09:16:42 PM 39.9431 -75.8150 244° Southwest 391 450 28,100 712 Climbing New York Center
Sun 09:17:42 PM 39.8936 -75.9469 244° Southwest 403 464 28,900 1,171 Climbing New York Center
Sun 09:19:26 PM 39.8081 -76.1775 244° Southwest 415 478 31,300 1,267 Climbing Washington Center
Sun 09:20:23 PM 39.7594 -76.3014 243° Southwest 401 461 32,300 1,026 Climbing Washington Center
Sun 09:21:23 PM 39.7067 -76.4250 241° Southwest 395 455 33,300 843 Climbing Washington Center
Sun 09:22:24 PM 39.6661 -76.5378 245° Southwest 389 448 34,000 344 Climbing Washington Center
Sun 09:23:25 PM 39.6153 -76.6608 242° Southwest 388 447 34,000  Level Washington Center
Sun 09:24:25 PM 39.5658 -76.7947 244° Southwest 394 453 34,000  Level Washington Center
Sun 09:25:25 PM 39.5144 -76.9258 243° Southwest 402 463 34,000  Level Washington Center
Sun 09:26:24 PM 39.4406 -77.0319 228° Southwest 402 463 34,000 403 Level Washington Center
Sun 09:27:24 PM 39.3517 -77.1294 220° Southwest 407 468 34,800 744 Climbing Washington Center
Sun 09:28:25 PM 39.2650 -77.2189 219° Southwest 407 468 35,500 595 Climbing Washington Center
Sun 09:29:25 PM 39.1764 -77.3106 219° Southwest 412 474 36,000 252 Climbing Washington Center
Sun 09:30:24 PM 39.0894 -77.4022 219° Southwest 412 474 36,000  Level Washington Center
Sun 09:31:25 PM 39.0006 -77.4933 219° Southwest 412 474 36,000  Level Washington Center
Sun 09:32:25 PM 38.9031 -77.5950 219° Southwest 413 475 36,000  Level Washington Center
Sun 09:33:23 PM 38.8117 -77.6883 219° Southwest 413 475 36,000  Level Washington Center
Sun 09:34:23 PM 38.7206 -77.7817 219° Southwest 431 496 36,000  Level Washington Center
Sun 09:35:23 PM 38.6333 -77.8747 220° Southwest 421 484 36,000  Level Washington Center
Sun 09:36:24 PM 38.5664 -77.9919 234° Southwest 411 473 36,000  Level Washington Center
Sun 09:37:25 PM 38.4972 -78.1092 233° Southwest 416 479 36,000  Level Washington Center
Sun 09:38:24 PM 38.4303 -78.2208 233° Southwest 416 479 36,000  Level Washington Center
Sun 09:39:25 PM 38.3608 -78.3403 233° Southwest 416 479 36,000  Level Washington Center
Sun 09:40:26 PM 38.2933 -78.4569 234° Southwest 416 479 36,000  Level Washington Center
Sun 09:41:24 PM 38.2281 -78.5733 234° Southwest 416 479 36,000  Level Washington Center
Sun 09:42:25 PM 38.1583 -78.6867 232° Southwest 416 479 36,000  Level Washington Center
Sun 09:43:25 PM 38.0908 -78.8000 233° Southwest 416 479 36,000  Level Washington Center
Sun 09:44:23 PM 38.0231 -78.9158 233° Southwest 416 479 36,000  Level Washington Center
Sun 09:45:23 PM 37.9597 -79.0156 231° Southwest 416 479 36,000  Level Washington Center
Sun 09:46:24 PM 37.8875 -79.1308 232° Southwest 416 479 36,000  Level Washington Center
Sun 09:47:25 PM 37.8111 -79.2403 229° Southwest 421 484 36,000  Level Washington Center
Sun 09:48:23 PM 37.7264 -79.3569 227° Southwest 421 484 36,000  Level Washington Center
Sun 09:49:23 PM 37.6500 -79.4556 226° Southwest 431 496 36,000  Level Washington Center
Sun 09:50:24 PM 37.5628 -79.5767 228° Southwest 426 490 36,000  Level Washington Center
Sun 09:51:23 PM 37.4925 -79.6778 229° Southwest 426 490 36,000  Level Washington Center
Sun 09:53:43 PM 37.3031 -79.9297 227° Southwest 413 475 36,000  Level Atlanta Center
Sun 09:54:43 PM 37.2172 -80.0436 227° Southwest 413 475 36,000  Level Atlanta Center
Sun 09:55:43 PM 37.1414 -80.1489 228° Southwest 407 468 36,000  Level Atlanta Center
Sun 09:56:43 PM 37.0614 -80.2544 226° Southwest 407 468 36,000  Level Atlanta Center
Sun 09:57:43 PM 36.9767 -80.3519 223° Southwest 412 474 36,000  Level Atlanta Center
Sun 09:58:43 PM 36.8911 -80.4183 212° Southwest 412 474 36,000  Level Atlanta Center
Sun 09:59:43 PM 36.7975 -80.4978 214° Southwest 417 480 36,000  Level Atlanta Center
Sun 10:00:43 PM 36.7019 -80.5769 214° Southwest 417 480 36,000  Level Atlanta Center
Sun 10:01:43 PM 36.6042 -80.6589 214° Southwest 412 474 36,000  Level Atlanta Center
Sun 10:02:43 PM 36.5081 -80.7378 213° Southwest 419 482 36,000  Level Atlanta Center
Sun 10:03:43 PM 36.4081 -80.8167 212° Southwest 419 482 36,000  Level Atlanta Center
Sun 10:04:43 PM 36.2967 -80.8600 197° South 425 489 36,000  Level Atlanta Center
Sun 10:05:43 PM 36.1706 -80.9086 197° South 431 496 36,000  Level Atlanta Center
Sun 10:06:43 PM 36.0547 -80.9489 196° South 431 496 36,000  Level Atlanta Center
Sun 10:07:43 PM 35.9392 -80.9919 197° South 431 496 36,000  Level Atlanta Center
Sun 10:08:43 PM 35.8214 -81.0347 196° South 431 496 36,000  Level Atlanta Center
Sun 10:09:43 PM 35.7053 -81.0747 196° South 431 496 36,000  Level Atlanta Center
Sun 10:10:43 PM 35.5833 -81.1200 197° South 437 503 36,000  Level Atlanta Center
Sun 10:11:43 PM 35.4736 -81.1544 194° South 451 519 36,000  Level Atlanta Center
Sun 10:12:43 PM 35.3600 -81.2019 199° South 452 520 36,000  Level Atlanta Center
Sun 10:13:43 PM 35.2419 -81.2439 196° South 442 509 36,000  Level Atlanta Center
Sun 10:14:43 PM 35.1117 -81.2917 197° South 442 509 36,000  Level Atlanta Center
Sun 10:15:43 PM 34.9914 -81.3208 191° South 442 509 36,000  Level Atlanta Center
Sun 10:17:31 PM 34.7614 -81.3308 182° South 455 524 36,000  Level Jacksonville Center
Sun 10:18:31 PM 34.6342 -81.3358 182° South 462 532 36,000  Level Jacksonville Center
Sun 10:19:31 PM 34.5050 -81.3381 181° South 462 532 36,000  Level Jacksonville Center
Sun 10:20:31 PM 34.3922 -81.3325 178° South 454 522 36,000  Level Jacksonville Center
Sun 10:21:31 PM 34.2586 -81.3197 175° South 452 520 36,000  Level Jacksonville Center
Sun 10:22:30 PM 34.1331 -81.2919 170° South 446 513 36,000 -100 Level Jacksonville Center
Sun 10:23:31 PM 34.0131 -81.2164 152° Southeast 455 524 35,800 -347 Descending Jacksonville Center
Sun 10:24:31 PM 33.8994 -81.1511 154° Southeast 460 529 35,300 -500 Descending Jacksonville Center
Sun 10:25:31 PM 33.7742 -81.1386 175° South 441 507 34,800 -950 Descending Jacksonville Center
Sun 10:26:31 PM 33.6614 -81.1433 182° South 450 518 33,400 -1,600 Descending Jacksonville Center
Sun 10:27:31 PM 33.5258 -81.1486 182° South 461 531 31,600 -1,700 Descending Jacksonville Center
Sun 10:28:31 PM 33.3944 -81.1536 182° South 471 542 30,000 -800 Descending Jacksonville Center
Sun 10:29:31 PM 33.2672 -81.1611 183° South 471 542 30,000  Level Jacksonville Center
Sun 10:30:31 PM 33.1381 -81.1636 181° South 471 542 30,000  Level Jacksonville Center
Sun 10:31:31 PM 33.0086 -81.1708 183° South 471 542 30,000  Level Jacksonville Center
Sun 10:32:31 PM 32.8814 -81.1733 181° South 466 536 30,000  Level Jacksonville Center
Sun 10:33:31 PM 32.7542 -81.1783 182° South 461 531 30,000 -100 Level Jacksonville Center
Sun 10:34:31 PM 32.6144 -81.1858 183° South 451 519 29,800 -750 Descending Jacksonville Center
Sun 10:35:31 PM 32.4892 -81.1906 182° South 458 527 28,500 -1,250 Descending Jacksonville Center
Sun 10:36:31 PM 32.3722 -81.1903 180° South 458 527 27,300 -1,250 Descending Jacksonville Center
Sun 10:37:31 PM 32.2533 -81.1950 182° South 453 521 26,000 -1,300 Descending Jacksonville Center
Sun 10:38:31 PM 32.1322 -81.1997 182° South 443 510 24,700 -1,350 Descending Jacksonville Center
Sun 10:39:31 PM 32.0153 -81.2019 181° South 436 502 23,300 -1,650 Descending Jacksonville Center
Sun 10:40:31 PM 31.8881 -81.2067 182° South 418 481 21,400 -1,650 Descending Jacksonville Center
Sun 10:41:31 PM 31.7797 -81.2283 190° South 413 475 20,000 -1,500 Descending Jacksonville Center
Sun 10:42:31 PM 31.6861 -81.2567 194° South 396 456 18,400 -1,600 Descending Jacksonville Center
Sun 10:43:31 PM 31.5739 -81.2906 194° South 383 441 16,800 -1,500 Descending Jacksonville Center
Sun 10:44:31 PM 31.4844 -81.3164 194° South 377 434 15,400 -1,450 Descending Jacksonville Center
Sun 10:45:31 PM 31.3783 -81.3472 194° South 372 428 13,900 -1,350 Descending Jacksonville Center
Sun 10:46:31 PM 31.2911 -81.3803 198° South 372 428 12,700 -1,250 Descending Jacksonville Center
Sun 10:47:31 PM 31.1975 -81.4039 192° South 361 415 11,400 -1,250 Descending Jacksonville Center
Sun 10:48:31 PM 31.1081 -81.4342 196° South 349 402 10,200 -661 Descending Jacksonville Center
Sun 10:49:38 PM 30.9975 -81.4628 193° South 334 384 10,000 -189 Descending Jacksonville Center
Sun 10:50:38 PM 30.9144 -81.4856 193° South 290 334 9,800 -893 Descending Jacksonville Center
Sun 10:51:39 PM 30.8353 -81.5061 193° South 288 331 8,200 -1,699 Descending Jacksonville Center
Sun 10:52:31 PM 30.7811 -81.5239 196° South 293 337 6,600 -2,036 Descending Jacksonville Center
Sun 10:53:31 PM 30.7083 -81.5444 194° South 275 316 4,400 -1,850 Descending Jacksonville Center
Sun 10:54:31 PM 30.6397 -81.5669 196° South 270 311 2,900 -1,500 Descending Jacksonville Center

Login

Don't have an account? Register now (free) for customized features, flight alerts, and more!